UKV2218 EGSS-EGJJ
Flight info
| Callsign | UKV2218 |
|---|---|
| Flight time | 0h 47m |
| Altitude | 28000 |
| Route | NUGBO M183 SILVA Q41 SAM N63 LELNA |
| Aircraft | B738/M-SDE2E3FGIRWY/LB1 |
Departure
| Time | 2026-05-05 15:24 |
|---|---|
| Airport | London Stansted Airport (EGSS) |
Arrival
| Time | 2026-05-05 16:11 |
|---|---|
| Airport | Jersey Airport (EGJJ) |
| Time | Latitude | Longitude | Altitude | Speed | Heading |
|---|---|---|---|---|---|
| 2026-05-05 14:36 | 51.88732 | 0.25156 | 360 ft | 0 kts | 222° |
| 2026-05-05 15:11 | 51.88737 | 0.25164 | 361 ft | 4 kts | 222° |
| 2026-05-05 15:12 | 51.88754 | 0.25189 | 360 ft | 2 kts | 222° |
| 2026-05-05 15:12 | 51.88772 | 0.25218 | 361 ft | 4 kts | 242° |
| 2026-05-05 15:12 | 51.88774 | 0.25250 | 354 ft | 4 kts | 311° |
| 2026-05-05 15:12 | 51.88759 | 0.25278 | 356 ft | 1 kts | 313° |
| 2026-05-05 15:13 | 51.88758 | 0.25279 | 355 ft | 0 kts | 313° |
| 2026-05-05 15:16 | 51.88767 | 0.25264 | 359 ft | 4 kts | 313° |
| 2026-05-05 15:16 | 51.88787 | 0.25223 | 354 ft | 5 kts | 312° |
| 2026-05-05 15:16 | 51.88810 | 0.25182 | 355 ft | 5 kts | 308° |
| 2026-05-05 15:16 | 51.88833 | 0.25142 | 356 ft | 5 kts | 314° |
| 2026-05-05 15:17 | 51.88857 | 0.25103 | 351 ft | 5 kts | 315° |
| 2026-05-05 15:17 | 51.88886 | 0.25056 | 351 ft | 7 kts | 313° |
| 2026-05-05 15:17 | 51.88919 | 0.24993 | 351 ft | 8 kts | 303° |
| 2026-05-05 15:17 | 51.88923 | 0.24903 | 358 ft | 9 kts | 231° |
| 2026-05-05 15:18 | 51.88871 | 0.24825 | 355 ft | 11 kts | 223° |
| 2026-05-05 15:18 | 51.88813 | 0.24735 | 358 ft | 12 kts | 225° |
| 2026-05-05 15:18 | 51.88748 | 0.24634 | 343 ft | 15 kts | 224° |
| 2026-05-05 15:18 | 51.88674 | 0.24521 | 343 ft | 14 kts | 220° |
| 2026-05-05 15:19 | 51.88599 | 0.24419 | 350 ft | 14 kts | 220° |
| 2026-05-05 15:19 | 51.88530 | 0.24317 | 349 ft | 13 kts | 224° |
| 2026-05-05 15:19 | 51.88466 | 0.24215 | 340 ft | 13 kts | 224° |
| 2026-05-05 15:19 | 51.88403 | 0.24117 | 339 ft | 12 kts | 223° |
| 2026-05-05 15:20 | 51.88341 | 0.24025 | 339 ft | 12 kts | 222° |
| 2026-05-05 15:20 | 51.88278 | 0.23936 | 337 ft | 12 kts | 222° |
| 2026-05-05 15:20 | 51.88219 | 0.23847 | 338 ft | 11 kts | 224° |
| 2026-05-05 15:20 | 51.88163 | 0.23757 | 336 ft | 11 kts | 223° |
| 2026-05-05 15:21 | 51.88101 | 0.23666 | 337 ft | 13 kts | 221° |
| 2026-05-05 15:21 | 51.88030 | 0.23561 | 335 ft | 15 kts | 223° |
| 2026-05-05 15:21 | 51.87950 | 0.23440 | 332 ft | 16 kts | 225° |
| 2026-05-05 15:21 | 51.87865 | 0.23310 | 335 ft | 17 kts | 223° |
| 2026-05-05 15:22 | 51.87778 | 0.23186 | 334 ft | 17 kts | 221° |
| 2026-05-05 15:22 | 51.87731 | 0.23026 | 336 ft | 16 kts | 289° |
| 2026-05-05 15:22 | 51.87769 | 0.22875 | 336 ft | 15 kts | 245° |
| 2026-05-05 15:22 | 51.87693 | 0.22755 | 332 ft | 16 kts | 222° |
| 2026-05-05 15:23 | 51.87608 | 0.22628 | 335 ft | 18 kts | 223° |
| 2026-05-05 15:23 | 51.87522 | 0.22460 | 329 ft | 21 kts | 264° |
| 2026-05-05 15:23 | 51.87589 | 0.22306 | 324 ft | 18 kts | 316° |
| 2026-05-05 15:23 | 51.87702 | 0.22284 | 323 ft | 17 kts | 30° |
| 2026-05-05 15:24 | 51.87801 | 0.22414 | 330 ft | 30 kts | 42° |
| 2026-05-05 15:24 | 51.88109 | 0.22889 | 331 ft | 91 kts | 44° |
| 2026-05-05 15:24 | 51.88768 | 0.23894 | 466 ft | 162 kts | 43° |
| 2026-05-05 15:24 | 51.89728 | 0.25311 | 1042 ft | 207 kts | 39° |
| 2026-05-05 15:25 | 51.90951 | 0.26690 | 2030 ft | 220 kts | 31° |
| 2026-05-05 15:25 | 51.92364 | 0.27793 | 3057 ft | 231 kts | 19° |
| 2026-05-05 15:25 | 51.93884 | 0.28326 | 3629 ft | 212 kts | 3° |
| 2026-05-05 15:25 | 51.95314 | 0.28124 | 3718 ft | 207 kts | 348° |
| 2026-05-05 15:26 | 51.96229 | 0.27635 | 3768 ft | 213 kts | 339° |
| 2026-05-05 15:26 | 51.98077 | 0.25851 | 4003 ft | 255 kts | 323° |
| 2026-05-05 15:26 | 51.98953 | 0.24544 | 3990 ft | 260 kts | 314° |
| 2026-05-05 15:26 | 51.99974 | 0.22096 | 3991 ft | 265 kts | 296° |
| 2026-05-05 15:27 | 52.00482 | 0.19219 | 3996 ft | 268 kts | 278° |
| 2026-05-05 15:27 | 52.00470 | 0.16579 | 3998 ft | 269 kts | 263° |
| 2026-05-05 15:27 | 52.00076 | 0.13610 | 4010 ft | 270 kts | 258° |
| 2026-05-05 15:27 | 51.99487 | 0.09697 | 4005 ft | 269 kts | 258° |
| 2026-05-05 15:28 | 51.99199 | 0.07693 | 3997 ft | 269 kts | 258° |
| 2026-05-05 15:28 | 51.98794 | 0.04716 | 3993 ft | 270 kts | 259° |
| 2026-05-05 15:28 | 51.98412 | 0.01777 | 3999 ft | 270 kts | 259° |
| 2026-05-05 15:28 | 51.98033 | -0.01197 | 3996 ft | 270 kts | 259° |
| 2026-05-05 15:29 | 51.97654 | -0.04189 | 3978 ft | 271 kts | 259° |
| 2026-05-05 15:29 | 51.97276 | -0.07177 | 3991 ft | 270 kts | 260° |
| 2026-05-05 15:29 | 51.96889 | -0.10188 | 4320 ft | 274 kts | 259° |
| 2026-05-05 15:29 | 51.96493 | -0.13228 | 5330 ft | 273 kts | 259° |
| 2026-05-05 15:30 | 51.96099 | -0.16249 | 6440 ft | 273 kts | 259° |
| 2026-05-05 15:30 | 51.95704 | -0.19268 | 7395 ft | 276 kts | 259° |
| 2026-05-05 15:30 | 51.95307 | -0.22301 | 8331 ft | 279 kts | 259° |
| 2026-05-05 15:30 | 51.94897 | -0.25434 | 9308 ft | 282 kts | 259° |
| 2026-05-05 15:31 | 51.94492 | -0.28519 | 10205 ft | 286 kts | 259° |
| 2026-05-05 15:31 | 51.94064 | -0.31783 | 10628 ft | 308 kts | 259° |
| 2026-05-05 15:31 | 51.93599 | -0.35315 | 10890 ft | 332 kts | 258° |
| 2026-05-05 15:31 | 51.93108 | -0.39035 | 11547 ft | 341 kts | 258° |
| 2026-05-05 15:32 | 51.92608 | -0.42800 | 12438 ft | 343 kts | 258° |
| 2026-05-05 15:32 | 51.92103 | -0.46595 | 13342 ft | 345 kts | 258° |
| 2026-05-05 15:32 | 51.91592 | -0.50428 | 14074 ft | 352 kts | 258° |
| 2026-05-05 15:32 | 51.91070 | -0.54330 | 14800 ft | 356 kts | 258° |
| 2026-05-05 15:33 | 51.90544 | -0.58259 | 15578 ft | 358 kts | 258° |
| 2026-05-05 15:33 | 51.90012 | -0.62219 | 16324 ft | 362 kts | 257° |
| 2026-05-05 15:33 | 51.89473 | -0.66227 | 17046 ft | 366 kts | 257° |
| 2026-05-05 15:33 | 51.88926 | -0.70279 | 17753 ft | 371 kts | 257° |
| 2026-05-05 15:34 | 51.88371 | -0.74378 | 18413 ft | 375 kts | 257° |
| 2026-05-05 15:34 | 51.87812 | -0.78499 | 19194 ft | 374 kts | 257° |
| 2026-05-05 15:34 | 51.87254 | -0.82606 | 19935 ft | 374 kts | 257° |
| 2026-05-05 15:34 | 51.86690 | -0.86740 | 20545 ft | 378 kts | 257° |
| 2026-05-05 15:35 | 51.86127 | -0.90852 | 21140 ft | 382 kts | 257° |
| 2026-05-05 15:35 | 51.85340 | -0.94972 | 21669 ft | 387 kts | 243° |
| 2026-05-05 15:35 | 51.83712 | -0.98437 | 22302 ft | 389 kts | 222° |
| 2026-05-05 15:35 | 51.81486 | -1.00902 | 23033 ft | 391 kts | 207° |
| 2026-05-05 15:36 | 51.78880 | -1.02219 | 23541 ft | 399 kts | 192° |
| 2026-05-05 15:36 | 51.76113 | -1.02943 | 23945 ft | 404 kts | 190° |
| 2026-05-05 15:36 | 51.73328 | -1.03579 | 24579 ft | 402 kts | 189° |
| 2026-05-05 15:36 | 51.70584 | -1.04213 | 25352 ft | 396 kts | 190° |
| 2026-05-05 15:37 | 51.67870 | -1.04878 | 26120 ft | 390 kts | 191° |
| 2026-05-05 15:37 | 51.65198 | -1.05561 | 26777 ft | 389 kts | 191° |
| 2026-05-05 15:37 | 51.62527 | -1.06254 | 27390 ft | 388 kts | 191° |
| 2026-05-05 15:37 | 51.59890 | -1.07085 | 27955 ft | 387 kts | 195° |
| 2026-05-05 15:38 | 51.57317 | -1.08175 | 27934 ft | 386 kts | 197° |
| 2026-05-05 15:38 | 51.54750 | -1.09354 | 27971 ft | 383 kts | 197° |
| 2026-05-05 15:38 | 51.52177 | -1.10508 | 27979 ft | 384 kts | 196° |
| 2026-05-05 15:38 | 51.49593 | -1.11627 | 27972 ft | 385 kts | 196° |
| 2026-05-05 15:39 | 51.46989 | -1.12738 | 27975 ft | 386 kts | 196° |
| 2026-05-05 15:39 | 51.44388 | -1.13854 | 27957 ft | 387 kts | 196° |
| 2026-05-05 15:39 | 51.41792 | -1.14975 | 27948 ft | 387 kts | 196° |
| 2026-05-05 15:39 | 51.39194 | -1.16096 | 27968 ft | 386 kts | 196° |
| 2026-05-05 15:40 | 51.36599 | -1.17212 | 27944 ft | 386 kts | 196° |
| 2026-05-05 15:40 | 51.34000 | -1.18325 | 27961 ft | 385 kts | 196° |
| 2026-05-05 15:40 | 51.31413 | -1.19427 | 27924 ft | 385 kts | 195° |
| 2026-05-05 15:40 | 51.28826 | -1.20526 | 27948 ft | 385 kts | 195° |
| 2026-05-05 15:41 | 51.26233 | -1.21627 | 27948 ft | 385 kts | 195° |
| 2026-05-05 15:41 | 51.23650 | -1.22724 | 27946 ft | 385 kts | 195° |
| 2026-05-05 15:41 | 51.21094 | -1.23808 | 27939 ft | 385 kts | 195° |
| 2026-05-05 15:41 | 51.18508 | -1.24901 | 27948 ft | 385 kts | 195° |
| 2026-05-05 15:42 | 51.15917 | -1.25988 | 27965 ft | 385 kts | 195° |
| 2026-05-05 15:42 | 51.13327 | -1.27071 | 27945 ft | 385 kts | 195° |
| 2026-05-05 15:42 | 51.10741 | -1.28151 | 27949 ft | 385 kts | 195° |
| 2026-05-05 15:42 | 51.08144 | -1.29234 | 27944 ft | 385 kts | 195° |
| 2026-05-05 15:43 | 51.05548 | -1.30317 | 27939 ft | 385 kts | 195° |
| 2026-05-05 15:43 | 51.02955 | -1.31398 | 27943 ft | 385 kts | 195° |
| 2026-05-05 15:43 | 51.00353 | -1.32482 | 27941 ft | 386 kts | 195° |
| 2026-05-05 15:43 | 50.97757 | -1.33561 | 27926 ft | 386 kts | 195° |
| 2026-05-05 15:44 | 50.95187 | -1.34764 | 27923 ft | 385 kts | 201° |
| 2026-05-05 15:44 | 50.92755 | -1.36558 | 27953 ft | 384 kts | 207° |
| 2026-05-05 15:44 | 50.90380 | -1.38497 | 27938 ft | 385 kts | 207° |
| 2026-05-05 15:44 | 50.88003 | -1.40445 | 27939 ft | 384 kts | 207° |
| 2026-05-05 15:45 | 50.85651 | -1.42356 | 27948 ft | 384 kts | 207° |
| 2026-05-05 15:45 | 50.83272 | -1.44273 | 27943 ft | 385 kts | 207° |
| 2026-05-05 15:45 | 50.80882 | -1.46186 | 27929 ft | 385 kts | 207° |
| 2026-05-05 15:45 | 50.78486 | -1.48096 | 27946 ft | 385 kts | 206° |
| 2026-05-05 15:46 | 50.76096 | -1.49998 | 27944 ft | 385 kts | 206° |
| 2026-05-05 15:46 | 50.73699 | -1.51901 | 27954 ft | 385 kts | 206° |
| 2026-05-05 15:46 | 50.71304 | -1.53800 | 27957 ft | 385 kts | 206° |
| 2026-05-05 15:46 | 50.68911 | -1.55692 | 27958 ft | 385 kts | 206° |
| 2026-05-05 15:47 | 50.66520 | -1.57580 | 27958 ft | 385 kts | 206° |
| 2026-05-05 15:47 | 50.64927 | -1.58837 | 27948 ft | 385 kts | 206° |
| 2026-05-05 15:47 | 50.61764 | -1.61331 | 27927 ft | 385 kts | 206° |
| 2026-05-05 15:47 | 50.59356 | -1.63227 | 27945 ft | 386 kts | 206° |
| 2026-05-05 15:48 | 50.56953 | -1.65119 | 27943 ft | 387 kts | 206° |
| 2026-05-05 15:48 | 50.54538 | -1.67017 | 27938 ft | 388 kts | 206° |
| 2026-05-05 15:48 | 50.52119 | -1.68916 | 27942 ft | 389 kts | 206° |
| 2026-05-05 15:48 | 50.49704 | -1.70810 | 27938 ft | 389 kts | 206° |
| 2026-05-05 15:49 | 50.47271 | -1.72716 | 27938 ft | 390 kts | 206° |
| 2026-05-05 15:49 | 50.44838 | -1.74619 | 27920 ft | 390 kts | 206° |
| 2026-05-05 15:49 | 50.42408 | -1.76519 | 27922 ft | 390 kts | 206° |
| 2026-05-05 15:49 | 50.39982 | -1.78413 | 27937 ft | 390 kts | 205° |
| 2026-05-05 15:50 | 50.37547 | -1.80312 | 27927 ft | 390 kts | 205° |
| 2026-05-05 15:50 | 50.35112 | -1.82209 | 27936 ft | 390 kts | 205° |
| 2026-05-05 15:50 | 50.32713 | -1.84075 | 27936 ft | 391 kts | 205° |
| 2026-05-05 15:50 | 50.30279 | -1.85966 | 27925 ft | 389 kts | 206° |
| 2026-05-05 15:51 | 50.27873 | -1.87834 | 27665 ft | 384 kts | 206° |
| 2026-05-05 15:51 | 50.25503 | -1.89672 | 27347 ft | 378 kts | 206° |
| 2026-05-05 15:51 | 50.23155 | -1.91491 | 26972 ft | 374 kts | 206° |
| 2026-05-05 15:51 | 50.20837 | -1.93284 | 26564 ft | 371 kts | 206° |
| 2026-05-05 15:52 | 50.18531 | -1.95066 | 26163 ft | 368 kts | 206° |
| 2026-05-05 15:52 | 50.16245 | -1.96831 | 25763 ft | 365 kts | 206° |
| 2026-05-05 15:52 | 50.13971 | -1.98585 | 25364 ft | 363 kts | 206° |
| 2026-05-05 15:52 | 50.11711 | -2.00325 | 24964 ft | 362 kts | 206° |
| 2026-05-05 15:53 | 50.09461 | -2.02057 | 24583 ft | 360 kts | 206° |
| 2026-05-05 15:53 | 50.07210 | -2.03788 | 24175 ft | 360 kts | 206° |
| 2026-05-05 15:53 | 50.04967 | -2.05512 | 23782 ft | 359 kts | 206° |
| 2026-05-05 15:53 | 50.02757 | -2.07207 | 23370 ft | 359 kts | 206° |
| 2026-05-05 15:54 | 50.00520 | -2.08922 | 22922 ft | 358 kts | 206° |
| 2026-05-05 15:54 | 49.98285 | -2.10606 | 22517 ft | 356 kts | 203° |
| 2026-05-05 15:54 | 49.95915 | -2.11756 | 21927 ft | 359 kts | 192° |
| 2026-05-05 15:54 | 49.93479 | -2.12539 | 21525 ft | 357 kts | 190° |
| 2026-05-05 15:55 | 49.91046 | -2.13279 | 21124 ft | 355 kts | 191° |
| 2026-05-05 15:55 | 49.88630 | -2.14032 | 20738 ft | 353 kts | 191° |
| 2026-05-05 15:55 | 49.86229 | -2.14806 | 20362 ft | 351 kts | 191° |
| 2026-05-05 15:55 | 49.83841 | -2.15597 | 19990 ft | 350 kts | 191° |
| 2026-05-05 15:56 | 49.81497 | -2.16385 | 19624 ft | 348 kts | 191° |
| 2026-05-05 15:56 | 49.79109 | -2.17193 | 19254 ft | 346 kts | 191° |
| 2026-05-05 15:56 | 49.76790 | -2.17979 | 18891 ft | 345 kts | 191° |
| 2026-05-05 15:56 | 49.74421 | -2.18781 | 18521 ft | 343 kts | 191° |
| 2026-05-05 15:57 | 49.72086 | -2.19570 | 18140 ft | 342 kts | 191° |
| 2026-05-05 15:57 | 49.69800 | -2.20388 | 17721 ft | 342 kts | 193° |
| 2026-05-05 15:57 | 49.67487 | -2.21379 | 17340 ft | 340 kts | 195° |
| 2026-05-05 15:57 | 49.65255 | -2.22396 | 16981 ft | 337 kts | 195° |
| 2026-05-05 15:58 | 49.63011 | -2.23427 | 16619 ft | 335 kts | 195° |
| 2026-05-05 15:58 | 49.60783 | -2.24445 | 16262 ft | 333 kts | 195° |
| 2026-05-05 15:58 | 49.58562 | -2.25450 | 15903 ft | 331 kts | 195° |
| 2026-05-05 15:58 | 49.56361 | -2.26439 | 15547 ft | 329 kts | 195° |
| 2026-05-05 15:59 | 49.54171 | -2.27418 | 15197 ft | 327 kts | 194° |
| 2026-05-05 15:59 | 49.51992 | -2.28389 | 14849 ft | 326 kts | 194° |
| 2026-05-05 15:59 | 49.49815 | -2.29356 | 14500 ft | 324 kts | 194° |
| 2026-05-05 15:59 | 49.47653 | -2.30314 | 14155 ft | 323 kts | 194° |
| 2026-05-05 16:00 | 49.45497 | -2.31269 | 13800 ft | 322 kts | 194° |
| 2026-05-05 16:00 | 49.43343 | -2.32222 | 13417 ft | 321 kts | 195° |
| 2026-05-05 16:00 | 49.41194 | -2.33171 | 12959 ft | 322 kts | 195° |
| 2026-05-05 16:00 | 49.39064 | -2.34112 | 12538 ft | 323 kts | 195° |
| 2026-05-05 16:01 | 49.36884 | -2.35073 | 12163 ft | 321 kts | 195° |
| 2026-05-05 16:01 | 49.34768 | -2.36006 | 11806 ft | 320 kts | 195° |
| 2026-05-05 16:01 | 49.32635 | -2.36946 | 11459 ft | 318 kts | 195° |
| 2026-05-05 16:01 | 49.30522 | -2.37876 | 11124 ft | 315 kts | 196° |
| 2026-05-05 16:02 | 49.28425 | -2.38798 | 10855 ft | 311 kts | 196° |
| 2026-05-05 16:02 | 49.26366 | -2.39702 | 10701 ft | 303 kts | 195° |
| 2026-05-05 16:02 | 49.24366 | -2.40580 | 10563 ft | 295 kts | 195° |
| 2026-05-05 16:02 | 49.22438 | -2.41425 | 10416 ft | 280 kts | 195° |
| 2026-05-05 16:03 | 49.20609 | -2.42226 | 10297 ft | 267 kts | 195° |
| 2026-05-05 16:03 | 49.18857 | -2.43023 | 10148 ft | 259 kts | 202° |
| 2026-05-05 16:03 | 49.17442 | -2.44639 | 9889 ft | 255 kts | 234° |
| 2026-05-05 16:03 | 49.16352 | -2.46775 | 9655 ft | 255 kts | 232° |
| 2026-05-05 16:04 | 49.15179 | -2.48830 | 9394 ft | 257 kts | 229° |
| 2026-05-05 16:04 | 49.13969 | -2.50821 | 9138 ft | 256 kts | 229° |
| 2026-05-05 16:04 | 49.12759 | -2.52763 | 8881 ft | 255 kts | 228° |
| 2026-05-05 16:04 | 49.11540 | -2.54718 | 8611 ft | 253 kts | 232° |
| 2026-05-05 16:05 | 49.10752 | -2.57044 | 8326 ft | 244 kts | 264° |
| 2026-05-05 16:05 | 49.10817 | -2.59559 | 8083 ft | 234 kts | 291° |
| 2026-05-05 16:05 | 49.11564 | -2.61684 | 7834 ft | 226 kts | 315° |
| 2026-05-05 16:05 | 49.12793 | -2.63081 | 7583 ft | 220 kts | 339° |
| 2026-05-05 16:06 | 49.14272 | -2.63538 | 7325 ft | 217 kts | 3° |
| 2026-05-05 16:06 | 49.15752 | -2.62993 | 6680 ft | 231 kts | 27° |
| 2026-05-05 16:06 | 49.16975 | -2.61250 | 5817 ft | 253 kts | 53° |
| 2026-05-05 16:06 | 49.17669 | -2.58795 | 5222 ft | 262 kts | 74° |
| 2026-05-05 16:07 | 49.17900 | -2.56015 | 4755 ft | 261 kts | 80° |
| 2026-05-05 16:07 | 49.18066 | -2.53300 | 4438 ft | 253 kts | 79° |
| 2026-05-05 16:07 | 49.18255 | -2.50666 | 4108 ft | 245 kts | 78° |
| 2026-05-05 16:07 | 49.18452 | -2.48115 | 3791 ft | 239 kts | 78° |
| 2026-05-05 16:08 | 49.18643 | -2.45638 | 3490 ft | 232 kts | 78° |
| 2026-05-05 16:08 | 49.18821 | -2.43249 | 3359 ft | 220 kts | 78° |
| 2026-05-05 16:08 | 49.19024 | -2.40920 | 2909 ft | 228 kts | 77° |
| 2026-05-05 16:08 | 49.19234 | -2.38515 | 2598 ft | 227 kts | 78° |
| 2026-05-05 16:09 | 49.19426 | -2.36139 | 2293 ft | 222 kts | 79° |
| 2026-05-05 16:09 | 49.19610 | -2.33880 | 2020 ft | 211 kts | 78° |
| 2026-05-05 16:09 | 49.19788 | -2.31714 | 1735 ft | 198 kts | 79° |
| 2026-05-05 16:09 | 49.19953 | -2.29696 | 1482 ft | 185 kts | 78° |
| 2026-05-05 16:10 | 49.20107 | -2.27820 | 1227 ft | 172 kts | 78° |
| 2026-05-05 16:10 | 49.20260 | -2.26050 | 950 ft | 162 kts | 78° |
| 2026-05-05 16:10 | 49.20377 | -2.24438 | 809 ft | 144 kts | 77° |
| 2026-05-05 16:10 | 49.20504 | -2.23010 | 759 ft | 127 kts | 78° |
| 2026-05-05 16:11 | 49.20642 | -2.21545 | 482 ft | 141 kts | 78° |
| 2026-05-05 16:11 | 49.20874 | -2.18397 | 283 ft | 33 kts | 119° |
| 2026-05-05 16:12 | 49.20782 | -2.18315 | 283 ft | 15 kts | 189° |
| 2026-05-05 16:12 | 49.20726 | -2.18598 | 283 ft | 14 kts | 263° |
| 2026-05-05 16:13 | 49.20694 | -2.19010 | 283 ft | 12 kts | 264° |
| 2026-05-05 16:13 | 49.20682 | -2.19135 | 283 ft | 11 kts | 262° |
| 2026-05-05 16:13 | 49.20689 | -2.19253 | 283 ft | 11 kts | 282° |
| 2026-05-05 16:14 | 49.20707 | -2.19435 | 283 ft | 10 kts | 270° |
| 2026-05-05 16:14 | 49.20673 | -2.19629 | 283 ft | 8 kts | 234° |
| 2026-05-05 16:15 | 49.20614 | -2.19751 | 283 ft | 7 kts | 263° |
| 2026-05-05 16:15 | 49.20585 | -2.19814 | 283 ft | 3 kts | 167° |
| 2026-05-05 16:16 | 49.20555 | -2.19807 | 283 ft | 2 kts | 173° |
| 2026-05-05 16:16 | 49.20554 | -2.19807 | 283 ft | 0 kts | 173° |